sensor_id;sensor_type;location;lat;lon;timestamp;P1;durP1;ratioP1;P2;durP2;ratioP2
15486;SDS011;7845;53.698;10.078;2023-03-08T00:00:23;3.03;;;0.53;;
15486;SDS011;7845;53.698;10.078;2023-03-08T00:02:50;3.20;;;0.63;;
15486;SDS011;7845;53.698;10.078;2023-03-08T00:05:18;3.70;;;0.80;;
15486;SDS011;7845;53.698;10.078;2023-03-08T00:07:43;4.23;;;0.73;;
15486;SDS011;7845;53.698;10.078;2023-03-08T00:10:10;3.10;;;0.70;;
15486;SDS011;7845;53.698;10.078;2023-03-08T00:12:35;4.07;;;0.90;;
15486;SDS011;7845;53.698;10.078;2023-03-08T00:15:01;3.77;;;0.70;;
15486;SDS011;7845;53.698;10.078;2023-03-08T00:17:26;3.63;;;0.67;;
15486;SDS011;7845;53.698;10.078;2023-03-08T00:19:51;4.17;;;0.70;;
15486;SDS011;7845;53.698;10.078;2023-03-08T00:22:17;3.63;;;0.90;;
15486;SDS011;7845;53.698;10.078;2023-03-08T00:24:42;2.93;;;0.60;;
15486;SDS011;7845;53.698;10.078;2023-03-08T00:27:07;4.30;;;0.70;;
15486;SDS011;7845;53.698;10.078;2023-03-08T00:29:33;3.33;;;0.60;;
15486;SDS011;7845;53.698;10.078;2023-03-08T00:32:01;3.60;;;0.60;;
15486;SDS011;7845;53.698;10.078;2023-03-08T00:34:26;4.03;;;0.70;;
15486;SDS011;7845;53.698;10.078;2023-03-08T00:36:51;3.30;;;0.80;;
15486;SDS011;7845;53.698;10.078;2023-03-08T00:39:18;3.30;;;0.50;;
15486;SDS011;7845;53.698;10.078;2023-03-08T00:41:43;3.63;;;0.60;;
15486;SDS011;7845;53.698;10.078;2023-03-08T00:44:08;2.73;;;0.50;;
15486;SDS011;7845;53.698;10.078;2023-03-08T00:46:34;2.70;;;0.40;;
15486;SDS011;7845;53.698;10.078;2023-03-08T00:48:59;4.00;;;0.90;;
15486;SDS011;7845;53.698;10.078;2023-03-08T00:51:25;3.40;;;0.50;;
15486;SDS011;7845;53.698;10.078;2023-03-08T00:53:50;2.97;;;0.60;;
15486;SDS011;7845;53.698;10.078;2023-03-08T00:56:17;2.67;;;0.40;;
15486;SDS011;7845;53.698;10.078;2023-03-08T00:58:43;2.80;;;0.43;;
15486;SDS011;7845;53.698;10.078;2023-03-08T01:01:10;4.00;;;0.70;;
15486;SDS011;7845;53.698;10.078;2023-03-08T01:03:38;2.80;;;0.50;;
15486;SDS011;7845;53.698;10.078;2023-03-08T01:06:06;2.93;;;0.50;;
15486;SDS011;7845;53.698;10.078;2023-03-08T01:08:41;2.83;;;0.50;;
15486;SDS011;7845;53.698;10.078;2023-03-08T01:11:12;3.00;;;0.60;;
15486;SDS011;7845;53.698;10.078;2023-03-08T01:13:49;5.77;;;0.70;;
15486;SDS011;7845;53.698;10.078;2023-03-08T01:16:17;3.80;;;0.60;;
15486;SDS011;7845;53.698;10.078;2023-03-08T01:18:47;4.07;;;0.70;;
15486;SDS011;7845;53.698;10.078;2023-03-08T01:21:13;3.50;;;0.63;;
15486;SDS011;7845;53.698;10.078;2023-03-08T01:23:39;3.63;;;0.70;;
15486;SDS011;7845;53.698;10.078;2023-03-08T01:26:09;2.60;;;0.40;;
15486;SDS011;7845;53.698;10.078;2023-03-08T01:28:36;4.30;;;0.60;;
15486;SDS011;7845;53.698;10.078;2023-03-08T01:31:06;3.30;;;0.73;;
15486;SDS011;7845;53.698;10.078;2023-03-08T01:33:34;3.43;;;0.77;;
15486;SDS011;7845;53.698;10.078;2023-03-08T01:36:02;3.63;;;0.77;;
15486;SDS011;7845;53.698;10.078;2023-03-08T01:38:29;3.10;;;0.63;;
15486;SDS011;7845;53.698;10.078;2023-03-08T01:40:57;3.13;;;0.80;;
15486;SDS011;7845;53.698;10.078;2023-03-08T01:46:01;3.10;;;0.70;;
15486;SDS011;7845;53.698;10.078;2023-03-08T01:48:42;3.00;;;0.80;;
15486;SDS011;7845;53.698;10.078;2023-03-08T01:51:23;3.23;;;0.70;;
15486;SDS011;7845;53.698;10.078;2023-03-08T01:53:56;2.93;;;0.60;;
15486;SDS011;7845;53.698;10.078;2023-03-08T01:56:24;3.00;;;0.70;;
15486;SDS011;7845;53.698;10.078;2023-03-08T01:58:51;3.40;;;0.90;;
15486;SDS011;7845;53.698;10.078;2023-03-08T02:01:17;2.90;;;0.73;;
15486;SDS011;7845;53.698;10.078;2023-03-08T02:03:44;2.90;;;0.70;;
15486;SDS011;7845;53.698;10.078;2023-03-08T02:06:10;3.77;;;0.90;;
15486;SDS011;7845;53.698;10.078;2023-03-08T02:08:37;3.50;;;1.00;;
15486;SDS011;7845;53.698;10.078;2023-03-08T02:11:02;3.17;;;0.70;;
15486;SDS011;7845;53.698;10.078;2023-03-08T02:13:28;3.37;;;0.90;;
15486;SDS011;7845;53.698;10.078;2023-03-08T02:15:54;3.80;;;1.10;;
15486;SDS011;7845;53.698;10.078;2023-03-08T02:18:23;3.20;;;0.90;;
15486;SDS011;7845;53.698;10.078;2023-03-08T02:20:48;4.00;;;0.97;;
15486;SDS011;7845;53.698;10.078;2023-03-08T02:23:15;2.90;;;0.80;;
15486;SDS011;7845;53.698;10.078;2023-03-08T02:25:48;3.83;;;0.90;;
15486;SDS011;7845;53.698;10.078;2023-03-08T02:28:16;3.40;;;0.80;;
15486;SDS011;7845;53.698;10.078;2023-03-08T02:30:43;4.60;;;0.93;;
15486;SDS011;7845;53.698;10.078;2023-03-08T02:33:08;3.10;;;0.77;;
15486;SDS011;7845;53.698;10.078;2023-03-08T02:35:34;3.17;;;0.90;;
15486;SDS011;7845;53.698;10.078;2023-03-08T02:38:00;2.90;;;0.70;;
15486;SDS011;7845;53.698;10.078;2023-03-08T02:40:25;3.10;;;0.80;;
15486;SDS011;7845;53.698;10.078;2023-03-08T02:42:51;3.27;;;1.03;;
15486;SDS011;7845;53.698;10.078;2023-03-08T02:45:16;3.10;;;0.87;;
15486;SDS011;7845;53.698;10.078;2023-03-08T02:47:41;3.10;;;0.73;;
15486;SDS011;7845;53.698;10.078;2023-03-08T02:50:10;3.40;;;0.90;;
15486;SDS011;7845;53.698;10.078;2023-03-08T02:52:35;3.10;;;1.00;;
15486;SDS011;7845;53.698;10.078;2023-03-08T02:55:00;3.20;;;0.70;;
15486;SDS011;7845;53.698;10.078;2023-03-08T02:57:26;3.57;;;0.87;;
15486;SDS011;7845;53.698;10.078;2023-03-08T02:59:51;3.70;;;1.03;;
15486;SDS011;7845;53.698;10.078;2023-03-08T03:02:16;3.87;;;1.30;;
15486;SDS011;7845;53.698;10.078;2023-03-08T03:04:42;3.40;;;1.20;;
15486;SDS011;7845;53.698;10.078;2023-03-08T03:07:08;3.20;;;0.90;;
15486;SDS011;7845;53.698;10.078;2023-03-08T03:09:34;4.17;;;1.03;;
15486;SDS011;7845;53.698;10.078;2023-03-08T03:12:00;3.70;;;1.30;;
15486;SDS011;7845;53.698;10.078;2023-03-08T03:14:26;4.10;;;1.07;;
15486;SDS011;7845;53.698;10.078;2023-03-08T03:16:52;4.87;;;1.77;;
15486;SDS011;7845;53.698;10.078;2023-03-08T03:19:17;4.13;;;1.37;;
15486;SDS011;7845;53.698;10.078;2023-03-08T03:21:43;4.97;;;1.30;;
15486;SDS011;7845;53.698;10.078;2023-03-08T03:24:08;4.40;;;1.80;;
15486;SDS011;7845;53.698;10.078;2023-03-08T03:26:33;3.53;;;1.60;;
15486;SDS011;7845;53.698;10.078;2023-03-08T03:28:59;3.80;;;1.10;;
15486;SDS011;7845;53.698;10.078;2023-03-08T03:31:24;5.60;;;1.60;;
15486;SDS011;7845;53.698;10.078;2023-03-08T03:33:51;4.50;;;1.30;;
15486;SDS011;7845;53.698;10.078;2023-03-08T03:36:18;4.00;;;1.67;;
15486;SDS011;7845;53.698;10.078;2023-03-08T03:38:44;3.80;;;1.50;;
15486;SDS011;7845;53.698;10.078;2023-03-08T03:41:11;4.00;;;1.43;;
15486;SDS011;7845;53.698;10.078;2023-03-08T03:43:38;3.47;;;1.17;;
15486;SDS011;7845;53.698;10.078;2023-03-08T03:46:05;3.60;;;1.33;;
15486;SDS011;7845;53.698;10.078;2023-03-08T03:48:35;4.67;;;1.43;;
15486;SDS011;7845;53.698;10.078;2023-03-08T03:51:05;3.70;;;1.30;;
15486;SDS011;7845;53.698;10.078;2023-03-08T03:53:34;4.03;;;1.70;;
15486;SDS011;7845;53.698;10.078;2023-03-08T03:56:16;3.90;;;1.67;;
15486;SDS011;7845;53.698;10.078;2023-03-08T03:58:44;7.80;;;1.40;;
15486;SDS011;7845;53.698;10.078;2023-03-08T04:01:14;4.63;;;1.70;;
15486;SDS011;7845;53.698;10.078;2023-03-08T04:03:41;3.87;;;1.40;;
15486;SDS011;7845;53.698;10.078;2023-03-08T04:06:08;3.90;;;1.40;;
15486;SDS011;7845;53.698;10.078;2023-03-08T04:08:38;5.00;;;1.80;;
15486;SDS011;7845;53.698;10.078;2023-03-08T04:11:07;3.40;;;1.40;;
15486;SDS011;7845;53.698;10.078;2023-03-08T04:13:34;3.50;;;1.30;;
15486;SDS011;7845;53.698;10.078;2023-03-08T04:16:06;3.97;;;1.57;;
15486;SDS011;7845;53.698;10.078;2023-03-08T04:18:33;4.93;;;2.00;;
15486;SDS011;7845;53.698;10.078;2023-03-08T04:20:58;3.53;;;1.43;;
15486;SDS011;7845;53.698;10.078;2023-03-08T04:23:23;3.63;;;1.20;;
15486;SDS011;7845;53.698;10.078;2023-03-08T04:29:29;3.70;;;1.47;;
15486;SDS011;7845;53.698;10.078;2023-03-08T04:32:11;3.70;;;1.47;;
15486;SDS011;7845;53.698;10.078;2023-03-08T04:34:36;3.50;;;1.00;;
15486;SDS011;7845;53.698;10.078;2023-03-08T04:37:02;3.60;;;1.47;;
15486;SDS011;7845;53.698;10.078;2023-03-08T04:39:27;5.00;;;2.20;;
15486;SDS011;7845;53.698;10.078;2023-03-08T04:41:54;4.00;;;1.70;;
15486;SDS011;7845;53.698;10.078;2023-03-08T04:44:19;5.60;;;2.10;;
15486;SDS011;7845;53.698;10.078;2023-03-08T04:46:45;4.30;;;1.77;;
15486;SDS011;7845;53.698;10.078;2023-03-08T04:49:10;3.47;;;1.33;;
15486;SDS011;7845;53.698;10.078;2023-03-08T04:51:35;3.93;;;1.47;;
15486;SDS011;7845;53.698;10.078;2023-03-08T04:54:02;4.13;;;1.80;;
15486;SDS011;7845;53.698;10.078;2023-03-08T04:56:30;3.37;;;1.57;;
15486;SDS011;7845;53.698;10.078;2023-03-08T04:58:56;5.00;;;2.00;;
15486;SDS011;7845;53.698;10.078;2023-03-08T05:01:22;4.30;;;1.90;;
15486;SDS011;7845;53.698;10.078;2023-03-08T05:03:47;4.10;;;2.20;;
15486;SDS011;7845;53.698;10.078;2023-03-08T05:06:16;3.60;;;1.70;;
15486;SDS011;7845;53.698;10.078;2023-03-08T05:08:42;3.87;;;1.60;;
15486;SDS011;7845;53.698;10.078;2023-03-08T05:11:07;3.77;;;1.87;;
15486;SDS011;7845;53.698;10.078;2023-03-08T05:13:34;6.90;;;2.10;;
15486;SDS011;7845;53.698;10.078;2023-03-08T05:16:03;5.30;;;2.47;;
15486;SDS011;7845;53.698;10.078;2023-03-08T05:18:29;4.00;;;1.67;;
15486;SDS011;7845;53.698;10.078;2023-03-08T05:20:59;4.10;;;1.90;;
15486;SDS011;7845;53.698;10.078;2023-03-08T05:23:26;4.40;;;1.70;;
15486;SDS011;7845;53.698;10.078;2023-03-08T05:25:53;3.97;;;1.80;;
15486;SDS011;7845;53.698;10.078;2023-03-08T05:28:20;4.37;;;1.60;;
15486;SDS011;7845;53.698;10.078;2023-03-08T05:30:47;3.80;;;1.40;;
15486;SDS011;7845;53.698;10.078;2023-03-08T05:33:13;3.90;;;1.53;;
15486;SDS011;7845;53.698;10.078;2023-03-08T05:35:39;4.00;;;1.70;;
15486;SDS011;7845;53.698;10.078;2023-03-08T05:38:04;3.50;;;1.17;;
15486;SDS011;7845;53.698;10.078;2023-03-08T05:40:30;3.90;;;1.23;;
15486;SDS011;7845;53.698;10.078;2023-03-08T05:42:55;3.20;;;1.00;;
15486;SDS011;7845;53.698;10.078;2023-03-08T05:45:20;3.37;;;1.20;;
15486;SDS011;7845;53.698;10.078;2023-03-08T05:47:47;3.87;;;1.40;;
15486;SDS011;7845;53.698;10.078;2023-03-08T05:50:12;3.67;;;1.30;;
15486;SDS011;7845;53.698;10.078;2023-03-08T05:52:37;4.50;;;1.40;;
15486;SDS011;7845;53.698;10.078;2023-03-08T05:55:03;4.37;;;1.40;;
15486;SDS011;7845;53.698;10.078;2023-03-08T05:57:29;5.00;;;1.73;;
15486;SDS011;7845;53.698;10.078;2023-03-08T05:59:55;3.50;;;1.70;;
15486;SDS011;7845;53.698;10.078;2023-03-08T06:02:21;3.80;;;1.60;;
15486;SDS011;7845;53.698;10.078;2023-03-08T06:04:47;5.00;;;2.10;;
15486;SDS011;7845;53.698;10.078;2023-03-08T06:07:12;5.10;;;2.30;;
15486;SDS011;7845;53.698;10.078;2023-03-08T06:09:38;4.33;;;2.33;;
15486;SDS011;7845;53.698;10.078;2023-03-08T06:12:04;4.77;;;2.53;;
15486;SDS011;7845;53.698;10.078;2023-03-08T06:14:30;6.57;;;3.50;;
15486;SDS011;7845;53.698;10.078;2023-03-08T06:16:55;4.50;;;2.17;;
15486;SDS011;7845;53.698;10.078;2023-03-08T06:19:21;4.90;;;2.77;;
15486;SDS011;7845;53.698;10.078;2023-03-08T06:21:46;5.40;;;2.97;;
15486;SDS011;7845;53.698;10.078;2023-03-08T06:24:13;6.60;;;3.87;;
15486;SDS011;7845;53.698;10.078;2023-03-08T06:26:38;7.37;;;4.77;;
15486;SDS011;7845;53.698;10.078;2023-03-08T06:29:03;6.50;;;4.37;;
15486;SDS011;7845;53.698;10.078;2023-03-08T06:31:29;6.73;;;4.00;;
15486;SDS011;7845;53.698;10.078;2023-03-08T06:33:54;5.70;;;3.30;;
15486;SDS011;7845;53.698;10.078;2023-03-08T06:36:20;4.90;;;2.73;;
15486;SDS011;7845;53.698;10.078;2023-03-08T06:38:46;6.10;;;3.70;;
15486;SDS011;7845;53.698;10.078;2023-03-08T06:41:12;6.30;;;4.00;;
15486;SDS011;7845;53.698;10.078;2023-03-08T06:43:41;6.30;;;4.63;;
15486;SDS011;7845;53.698;10.078;2023-03-08T06:46:07;6.97;;;3.43;;
15486;SDS011;7845;53.698;10.078;2023-03-08T06:48:35;5.63;;;3.27;;
15486;SDS011;7845;53.698;10.078;2023-03-08T06:51:01;8.87;;;3.20;;
15486;SDS011;7845;53.698;10.078;2023-03-08T06:53:26;5.33;;;3.37;;
15486;SDS011;7845;53.698;10.078;2023-03-08T06:55:53;5.57;;;3.53;;
15486;SDS011;7845;53.698;10.078;2023-03-08T06:58:18;6.63;;;3.17;;
15486;SDS011;7845;53.698;10.078;2023-03-08T07:00:45;5.27;;;2.97;;
15486;SDS011;7845;53.698;10.078;2023-03-08T07:03:13;5.60;;;3.13;;
15486;SDS011;7845;53.698;10.078;2023-03-08T07:05:39;4.83;;;3.00;;
15486;SDS011;7845;53.698;10.078;2023-03-08T07:08:06;5.63;;;2.80;;
15486;SDS011;7845;53.698;10.078;2023-03-08T07:10:32;5.63;;;3.00;;
15486;SDS011;7845;53.698;10.078;2023-03-08T07:12:58;6.00;;;3.10;;
15486;SDS011;7845;53.698;10.078;2023-03-08T07:15:24;4.80;;;2.50;;
15486;SDS011;7845;53.698;10.078;2023-03-08T07:17:50;6.20;;;3.30;;
15486;SDS011;7845;53.698;10.078;2023-03-08T07:20:20;6.73;;;4.03;;
15486;SDS011;7845;53.698;10.078;2023-03-08T07:22:46;7.33;;;3.70;;
15486;SDS011;7845;53.698;10.078;2023-03-08T07:25:13;6.63;;;3.20;;
15486;SDS011;7845;53.698;10.078;2023-03-08T07:27:40;6.50;;;2.93;;
15486;SDS011;7845;53.698;10.078;2023-03-08T07:30:06;4.30;;;2.00;;
15486;SDS011;7845;53.698;10.078;2023-03-08T07:32:35;5.00;;;2.20;;
15486;SDS011;7845;53.698;10.078;2023-03-08T07:35:01;4.63;;;2.20;;
15486;SDS011;7845;53.698;10.078;2023-03-08T07:37:26;3.83;;;1.77;;
15486;SDS011;7845;53.698;10.078;2023-03-08T07:39:52;4.37;;;2.10;;
15486;SDS011;7845;53.698;10.078;2023-03-08T07:42:17;4.23;;;1.80;;
15486;SDS011;7845;53.698;10.078;2023-03-08T07:44:43;6.23;;;2.03;;
15486;SDS011;7845;53.698;10.078;2023-03-08T07:47:08;5.03;;;2.33;;
15486;SDS011;7845;53.698;10.078;2023-03-08T07:49:34;4.97;;;1.80;;
15486;SDS011;7845;53.698;10.078;2023-03-08T07:52:00;4.30;;;2.03;;
15486;SDS011;7845;53.698;10.078;2023-03-08T07:54:26;4.47;;;2.33;;
15486;SDS011;7845;53.698;10.078;2023-03-08T07:56:51;4.23;;;1.90;;
15486;SDS011;7845;53.698;10.078;2023-03-08T07:59:17;4.00;;;1.67;;
15486;SDS011;7845;53.698;10.078;2023-03-08T08:01:43;4.33;;;2.10;;
15486;SDS011;7845;53.698;10.078;2023-03-08T08:04:08;4.17;;;1.47;;
15486;SDS011;7845;53.698;10.078;2023-03-08T08:06:34;3.60;;;1.67;;
15486;SDS011;7845;53.698;10.078;2023-03-08T08:09:00;3.63;;;1.50;;
15486;SDS011;7845;53.698;10.078;2023-03-08T08:11:25;4.23;;;1.57;;
15486;SDS011;7845;53.698;10.078;2023-03-08T08:13:51;4.20;;;1.57;;
15486;SDS011;7845;53.698;10.078;2023-03-08T08:16:17;3.90;;;1.80;;
15486;SDS011;7845;53.698;10.078;2023-03-08T08:18:42;3.70;;;1.70;;
15486;SDS011;7845;53.698;10.078;2023-03-08T08:21:11;4.43;;;1.60;;
15486;SDS011;7845;53.698;10.078;2023-03-08T08:23:39;4.40;;;1.75;;
15486;SDS011;7845;53.698;10.078;2023-03-08T08:26:07;4.13;;;1.80;;
15486;SDS011;7845;53.698;10.078;2023-03-08T08:28:35;4.07;;;1.77;;
15486;SDS011;7845;53.698;10.078;2023-03-08T08:31:03;4.30;;;1.80;;
15486;SDS011;7845;53.698;10.078;2023-03-08T08:33:30;4.70;;;2.30;;
15486;SDS011;7845;53.698;10.078;2023-03-08T08:35:56;4.37;;;2.10;;
15486;SDS011;7845;53.698;10.078;2023-03-08T08:38:23;3.77;;;1.67;;
15486;SDS011;7845;53.698;10.078;2023-03-08T08:40:49;4.57;;;2.00;;
15486;SDS011;7845;53.698;10.078;2023-03-08T08:43:15;4.67;;;2.53;;
15486;SDS011;7845;53.698;10.078;2023-03-08T08:45:45;5.03;;;2.50;;
15486;SDS011;7845;53.698;10.078;2023-03-08T08:48:13;9.87;;;2.87;;
15486;SDS011;7845;53.698;10.078;2023-03-08T08:50:40;6.20;;;3.07;;
15486;SDS011;7845;53.698;10.078;2023-03-08T08:53:06;5.03;;;2.67;;
15486;SDS011;7845;53.698;10.078;2023-03-08T08:55:32;6.57;;;3.60;;
15486;SDS011;7845;53.698;10.078;2023-03-08T08:57:58;8.00;;;4.60;;
15486;SDS011;7845;53.698;10.078;2023-03-08T09:00:24;8.10;;;5.23;;
15486;SDS011;7845;53.698;10.078;2023-03-08T09:02:50;7.97;;;4.90;;
15486;SDS011;7845;53.698;10.078;2023-03-08T09:05:15;10.87;;;4.13;;
15486;SDS011;7845;53.698;10.078;2023-03-08T09:07:40;6.67;;;3.50;;
15486;SDS011;7845;53.698;10.078;2023-03-08T09:10:06;7.70;;;4.60;;
15486;SDS011;7845;53.698;10.078;2023-03-08T09:12:32;7.97;;;4.50;;
15486;SDS011;7845;53.698;10.078;2023-03-08T09:14:58;6.73;;;4.07;;
15486;SDS011;7845;53.698;10.078;2023-03-08T09:17:24;7.50;;;4.47;;
15486;SDS011;7845;53.698;10.078;2023-03-08T09:19:49;7.93;;;4.10;;
15486;SDS011;7845;53.698;10.078;2023-03-08T09:22:15;8.30;;;5.00;;
15486;SDS011;7845;53.698;10.078;2023-03-08T09:24:41;7.00;;;4.07;;
15486;SDS011;7845;53.698;10.078;2023-03-08T09:27:06;7.57;;;3.90;;
15486;SDS011;7845;53.698;10.078;2023-03-08T09:29:32;7.00;;;4.30;;
15486;SDS011;7845;53.698;10.078;2023-03-08T09:31:59;9.23;;;5.00;;
15486;SDS011;7845;53.698;10.078;2023-03-08T09:34:25;9.20;;;5.23;;
15486;SDS011;7845;53.698;10.078;2023-03-08T09:36:50;13.23;;;5.70;;
15486;SDS011;7845;53.698;10.078;2023-03-08T09:39:16;11.00;;;6.90;;
15486;SDS011;7845;53.698;10.078;2023-03-08T09:52:37;7.47;;;3.80;;
15486;SDS011;7845;53.698;10.078;2023-03-08T09:55:11;7.80;;;4.30;;
15486;SDS011;7845;53.698;10.078;2023-03-08T09:57:48;9.13;;;5.00;;
15486;SDS011;7845;53.698;10.078;2023-03-08T10:00:18;9.40;;;4.30;;
15486;SDS011;7845;53.698;10.078;2023-03-08T10:02:55;9.13;;;5.03;;
15486;SDS011;7845;53.698;10.078;2023-03-08T10:05:39;8.80;;;4.30;;
15486;SDS011;7845;53.698;10.078;2023-03-08T10:10:52;9.53;;;4.30;;
15486;SDS011;7845;53.698;10.078;2023-03-08T10:16:10;7.17;;;3.87;;
15486;SDS011;7845;53.698;10.078;2023-03-08T10:18:54;8.23;;;4.33;;
15486;SDS011;7845;53.698;10.078;2023-03-08T10:21:25;8.47;;;4.60;;
15486;SDS011;7845;53.698;10.078;2023-03-08T10:23:59;8.37;;;4.37;;
15486;SDS011;7845;53.698;10.078;2023-03-08T10:26:29;6.50;;;3.57;;
15486;SDS011;7845;53.698;10.078;2023-03-08T10:28:55;8.17;;;4.27;;
15486;SDS011;7845;53.698;10.078;2023-03-08T10:31:23;9.90;;;5.03;;
15486;SDS011;7845;53.698;10.078;2023-03-08T10:33:52;9.03;;;4.93;;
15486;SDS011;7845;53.698;10.078;2023-03-08T10:36:23;7.90;;;3.73;;
15486;SDS011;7845;53.698;10.078;2023-03-08T10:39:22;7.40;;;3.80;;
15486;SDS011;7845;53.698;10.078;2023-03-08T10:41:42;7.70;;;3.50;;
15486;SDS011;7845;53.698;10.078;2023-03-08T10:44:13;6.37;;;3.47;;
15486;SDS011;7845;53.698;10.078;2023-03-08T10:46:51;5.80;;;3.70;;
15486;SDS011;7845;53.698;10.078;2023-03-08T10:49:17;7.10;;;3.80;;
15486;SDS011;7845;53.698;10.078;2023-03-08T10:51:53;6.67;;;3.60;;
15486;SDS011;7845;53.698;10.078;2023-03-08T10:54:21;6.40;;;3.13;;
15486;SDS011;7845;53.698;10.078;2023-03-08T10:56:52;6.43;;;3.53;;
15486;SDS011;7845;53.698;10.078;2023-03-08T10:59:20;8.10;;;4.33;;
15486;SDS011;7845;53.698;10.078;2023-03-08T11:01:55;6.53;;;3.03;;
15486;SDS011;7845;53.698;10.078;2023-03-08T11:04:36;6.50;;;3.17;;
15486;SDS011;7845;53.698;10.078;2023-03-08T11:07:17;9.40;;;4.90;;
15486;SDS011;7845;53.698;10.078;2023-03-08T11:09:48;8.10;;;3.77;;
15486;SDS011;7845;53.698;10.078;2023-03-08T11:12:24;9.00;;;4.70;;
15486;SDS011;7845;53.698;10.078;2023-03-08T11:14:51;8.07;;;3.77;;
15486;SDS011;7845;53.698;10.078;2023-03-08T11:20:15;7.00;;;3.47;;
15486;SDS011;7845;53.698;10.078;2023-03-08T11:23:00;7.80;;;4.00;;
15486;SDS011;7845;53.698;10.078;2023-03-08T11:25:31;7.70;;;4.37;;
15486;SDS011;7845;53.698;10.078;2023-03-08T11:36:35;6.60;;;2.90;;
15486;SDS011;7845;53.698;10.078;2023-03-08T11:42:14;8.30;;;4.27;;
15486;SDS011;7845;53.698;10.078;2023-03-08T11:53:23;6.87;;;2.73;;
15486;SDS011;7845;53.698;10.078;2023-03-08T12:01:47;7.07;;;2.40;;
15486;SDS011;7845;53.698;10.078;2023-03-08T12:04:18;6.60;;;2.40;;
15486;SDS011;7845;53.698;10.078;2023-03-08T12:06:50;5.27;;;2.00;;
15486;SDS011;7845;53.698;10.078;2023-03-08T12:12:02;8.30;;;2.20;;
15486;SDS011;7845;53.698;10.078;2023-03-08T12:14:58;5.10;;;2.00;;
15486;SDS011;7845;53.698;10.078;2023-03-08T12:17:41;5.23;;;1.70;;
15486;SDS011;7845;53.698;10.078;2023-03-08T12:20:14;5.30;;;1.60;;
15486;SDS011;7845;53.698;10.078;2023-03-08T12:22:44;6.10;;;2.40;;
15486;SDS011;7845;53.698;10.078;2023-03-08T12:25:29;6.17;;;2.90;;
15486;SDS011;7845;53.698;10.078;2023-03-08T12:28:09;6.43;;;2.93;;
15486;SDS011;7845;53.698;10.078;2023-03-08T12:31:02;6.40;;;3.17;;
15486;SDS011;7845;53.698;10.078;2023-03-08T12:33:45;6.40;;;3.00;;
15486;SDS011;7845;53.698;10.078;2023-03-08T12:36:11;6.63;;;3.03;;
15486;SDS011;7845;53.698;10.078;2023-03-08T12:38:39;6.17;;;3.30;;
15486;SDS011;7845;53.698;10.078;2023-03-08T12:41:20;8.27;;;4.20;;
15486;SDS011;7845;53.698;10.078;2023-03-08T12:43:56;9.13;;;4.00;;
15486;SDS011;7845;53.698;10.078;2023-03-08T12:46:26;6.13;;;3.00;;
15486;SDS011;7845;53.698;10.078;2023-03-08T12:48:51;6.33;;;3.00;;
15486;SDS011;7845;53.698;10.078;2023-03-08T12:51:31;7.10;;;3.23;;
15486;SDS011;7845;53.698;10.078;2023-03-08T12:53:58;6.93;;;2.73;;
15486;SDS011;7845;53.698;10.078;2023-03-08T12:56:36;7.70;;;3.60;;
15486;SDS011;7845;53.698;10.078;2023-03-08T13:01:41;5.13;;;2.40;;
15486;SDS011;7845;53.698;10.078;2023-03-08T13:04:24;8.30;;;3.47;;
15486;SDS011;7845;53.698;10.078;2023-03-08T13:14:40;6.40;;;3.20;;
15486;SDS011;7845;53.698;10.078;2023-03-08T13:19:55;6.60;;;3.13;;
15486;SDS011;7845;53.698;10.078;2023-03-08T13:22:29;5.03;;;1.90;;
15486;SDS011;7845;53.698;10.078;2023-03-08T13:25:06;6.00;;;2.33;;
15486;SDS011;7845;53.698;10.078;2023-03-08T13:27:49;7.10;;;2.87;;
15486;SDS011;7845;53.698;10.078;2023-03-08T13:30:23;6.00;;;2.60;;
15486;SDS011;7845;53.698;10.078;2023-03-08T13:32:53;5.63;;;2.60;;
15486;SDS011;7845;53.698;10.078;2023-03-08T13:35:19;6.40;;;2.10;;
15486;SDS011;7845;53.698;10.078;2023-03-08T13:37:52;4.77;;;1.97;;
15486;SDS011;7845;53.698;10.078;2023-03-08T13:40:23;5.93;;;2.23;;
15486;SDS011;7845;53.698;10.078;2023-03-08T13:42:59;6.80;;;2.90;;
15486;SDS011;7845;53.698;10.078;2023-03-08T13:45:32;5.93;;;3.03;;
15486;SDS011;7845;53.698;10.078;2023-03-08T13:47:59;6.10;;;2.73;;
15486;SDS011;7845;53.698;10.078;2023-03-08T13:50:32;6.50;;;3.13;;
15486;SDS011;7845;53.698;10.078;2023-03-08T13:53:01;5.90;;;3.07;;
15486;SDS011;7845;53.698;10.078;2023-03-08T13:55:33;6.40;;;3.10;;
15486;SDS011;7845;53.698;10.078;2023-03-08T13:58:02;5.83;;;3.10;;
15486;SDS011;7845;53.698;10.078;2023-03-08T14:00:32;6.40;;;3.17;;
15486;SDS011;7845;53.698;10.078;2023-03-08T14:02:59;6.70;;;3.10;;
15486;SDS011;7845;53.698;10.078;2023-03-08T14:05:28;8.00;;;3.57;;
15486;SDS011;7845;53.698;10.078;2023-03-08T14:08:06;6.73;;;4.23;;
15486;SDS011;7845;53.698;10.078;2023-03-08T14:10:46;7.77;;;4.73;;
15486;SDS011;7845;53.698;10.078;2023-03-08T14:13:15;7.50;;;4.23;;
15486;SDS011;7845;53.698;10.078;2023-03-08T14:15:47;6.70;;;4.03;;
15486;SDS011;7845;53.698;10.078;2023-03-08T14:18:18;7.77;;;4.57;;
15486;SDS011;7845;53.698;10.078;2023-03-08T14:20:57;9.40;;;6.23;;
15486;SDS011;7845;53.698;10.078;2023-03-08T14:23:24;7.70;;;4.67;;
15486;SDS011;7845;53.698;10.078;2023-03-08T14:25:55;8.20;;;4.83;;
15486;SDS011;7845;53.698;10.078;2023-03-08T14:28:34;9.67;;;6.27;;
15486;SDS011;7845;53.698;10.078;2023-03-08T14:31:03;8.60;;;5.30;;
15486;SDS011;7845;53.698;10.078;2023-03-08T14:33:28;8.10;;;4.87;;
15486;SDS011;7845;53.698;10.078;2023-03-08T14:35:55;8.37;;;5.17;;
15486;SDS011;7845;53.698;10.078;2023-03-08T14:38:24;6.77;;;3.83;;
15486;SDS011;7845;53.698;10.078;2023-03-08T14:40:52;6.37;;;3.30;;
15486;SDS011;7845;53.698;10.078;2023-03-08T14:43:22;7.87;;;4.63;;
15486;SDS011;7845;53.698;10.078;2023-03-08T14:45:59;7.77;;;4.87;;
15486;SDS011;7845;53.698;10.078;2023-03-08T14:48:28;7.70;;;4.60;;
15486;SDS011;7845;53.698;10.078;2023-03-08T14:50:59;8.20;;;4.20;;
15486;SDS011;7845;53.698;10.078;2023-03-08T14:53:34;5.87;;;3.20;;
15486;SDS011;7845;53.698;10.078;2023-03-08T14:56:14;7.70;;;4.50;;
15486;SDS011;7845;53.698;10.078;2023-03-08T14:58:41;7.50;;;3.83;;
15486;SDS011;7845;53.698;10.078;2023-03-08T15:01:09;7.90;;;4.70;;
15486;SDS011;7845;53.698;10.078;2023-03-08T15:03:34;7.57;;;4.53;;
15486;SDS011;7845;53.698;10.078;2023-03-08T15:06:00;7.83;;;4.47;;
15486;SDS011;7845;53.698;10.078;2023-03-08T15:08:33;9.77;;;4.30;;
15486;SDS011;7845;53.698;10.078;2023-03-08T15:10:58;8.13;;;5.07;;
15486;SDS011;7845;53.698;10.078;2023-03-08T15:13:24;6.83;;;4.43;;
15486;SDS011;7845;53.698;10.078;2023-03-08T15:15:49;6.67;;;4.30;;
15486;SDS011;7845;53.698;10.078;2023-03-08T15:18:16;7.73;;;4.57;;
15486;SDS011;7845;53.698;10.078;2023-03-08T15:20:43;9.20;;;6.20;;
15486;SDS011;7845;53.698;10.078;2023-03-08T15:23:12;9.03;;;5.03;;
15486;SDS011;7845;53.698;10.078;2023-03-08T15:25:42;10.07;;;5.17;;
15486;SDS011;7845;53.698;10.078;2023-03-08T15:28:09;8.27;;;4.57;;
15486;SDS011;7845;53.698;10.078;2023-03-08T15:30:37;8.43;;;4.50;;
15486;SDS011;7845;53.698;10.078;2023-03-08T15:33:03;7.70;;;4.90;;
15486;SDS011;7845;53.698;10.078;2023-03-08T15:35:28;7.50;;;4.47;;
15486;SDS011;7845;53.698;10.078;2023-03-08T15:37:54;6.83;;;3.97;;
15486;SDS011;7845;53.698;10.078;2023-03-08T15:40:21;6.47;;;3.90;;
15486;SDS011;7845;53.698;10.078;2023-03-08T15:42:49;6.37;;;3.47;;
15486;SDS011;7845;53.698;10.078;2023-03-08T15:45:14;5.03;;;2.40;;
15486;SDS011;7845;53.698;10.078;2023-03-08T15:47:40;5.03;;;2.50;;
15486;SDS011;7845;53.698;10.078;2023-03-08T15:50:10;7.17;;;3.80;;
15486;SDS011;7845;53.698;10.078;2023-03-08T15:52:40;5.73;;;3.43;;
15486;SDS011;7845;53.698;10.078;2023-03-08T15:55:05;6.30;;;3.77;;
15486;SDS011;7845;53.698;10.078;2023-03-08T15:57:33;7.70;;;3.87;;
15486;SDS011;7845;53.698;10.078;2023-03-08T15:59:58;7.40;;;3.83;;
15486;SDS011;7845;53.698;10.078;2023-03-08T16:02:24;7.23;;;4.03;;